sensor_id;sensor_type;location;lat;lon;timestamp;P1;durP1;ratioP1;P2;durP2;ratioP2
5491;SDS011;2768;53.540;10.224;2023-09-19T00:01:17;2.03;;;1.83;;
5491;SDS011;2768;53.540;10.224;2023-09-19T00:07:13;3.10;;;2.30;;
5491;SDS011;2768;53.540;10.224;2023-09-19T00:13:07;7.30;;;2.40;;
5491;SDS011;2768;53.540;10.224;2023-09-19T00:19:07;3.90;;;2.43;;
5491;SDS011;2768;53.540;10.224;2023-09-19T00:25:02;1.87;;;1.67;;
5491;SDS011;2768;53.540;10.224;2023-09-19T00:30:57;2.30;;;2.10;;
5491;SDS011;2768;53.540;10.224;2023-09-19T00:36:55;2.40;;;2.20;;
5491;SDS011;2768;53.540;10.224;2023-09-19T00:42:50;4.60;;;1.90;;
5491;SDS011;2768;53.540;10.224;2023-09-19T00:48:44;2.77;;;2.03;;
5491;SDS011;2768;53.540;10.224;2023-09-19T00:54:38;2.97;;;2.03;;
5491;SDS011;2768;53.540;10.224;2023-09-19T01:00:33;2.23;;;2.03;;
5491;SDS011;2768;53.540;10.224;2023-09-19T01:06:27;1.93;;;1.83;;
5491;SDS011;2768;53.540;10.224;2023-09-19T01:12:22;2.10;;;1.90;;
5491;SDS011;2768;53.540;10.224;2023-09-19T01:18:27;2.67;;;2.37;;
5491;SDS011;2768;53.540;10.224;2023-09-19T01:24:44;3.93;;;2.50;;
5491;SDS011;2768;53.540;10.224;2023-09-19T01:31:00;7.13;;;2.77;;
5491;SDS011;2768;53.540;10.224;2023-09-19T01:36:55;2.87;;;2.60;;
5491;SDS011;2768;53.540;10.224;2023-09-19T01:42:54;4.93;;;2.87;;
5491;SDS011;2768;53.540;10.224;2023-09-19T01:48:57;3.40;;;2.80;;
5491;SDS011;2768;53.540;10.224;2023-09-19T01:55:00;3.77;;;3.20;;
5491;SDS011;2768;53.540;10.224;2023-09-19T02:01:00;5.83;;;2.70;;
5491;SDS011;2768;53.540;10.224;2023-09-19T02:06:56;5.40;;;2.83;;
5491;SDS011;2768;53.540;10.224;2023-09-19T02:12:51;5.30;;;3.00;;
5491;SDS011;2768;53.540;10.224;2023-09-19T02:18:45;5.87;;;3.10;;
5491;SDS011;2768;53.540;10.224;2023-09-19T02:24:40;3.90;;;2.90;;
5491;SDS011;2768;53.540;10.224;2023-09-19T02:30:33;5.80;;;3.00;;
5491;SDS011;2768;53.540;10.224;2023-09-19T02:36:27;5.57;;;2.60;;
5491;SDS011;2768;53.540;10.224;2023-09-19T02:42:23;5.87;;;3.00;;
5491;SDS011;2768;53.540;10.224;2023-09-19T02:48:17;6.60;;;2.87;;
5491;SDS011;2768;53.540;10.224;2023-09-19T02:54:11;4.70;;;3.00;;
5491;SDS011;2768;53.540;10.224;2023-09-19T03:00:08;4.33;;;2.80;;
5491;SDS011;2768;53.540;10.224;2023-09-19T03:06:04;10.00;;;4.40;;
5491;SDS011;2768;53.540;10.224;2023-09-19T03:12:00;4.53;;;2.57;;
5491;SDS011;2768;53.540;10.224;2023-09-19T03:17:59;2.90;;;2.30;;
5491;SDS011;2768;53.540;10.224;2023-09-19T03:23:53;6.87;;;3.23;;
5491;SDS011;2768;53.540;10.224;2023-09-19T03:29:46;3.70;;;3.00;;
5491;SDS011;2768;53.540;10.224;2023-09-19T03:35:42;7.47;;;3.40;;
5491;SDS011;2768;53.540;10.224;2023-09-19T03:41:45;7.20;;;3.20;;
5491;SDS011;2768;53.540;10.224;2023-09-19T03:47:39;6.57;;;2.87;;
5491;SDS011;2768;53.540;10.224;2023-09-19T03:53:36;6.27;;;3.00;;
5491;SDS011;2768;53.540;10.224;2023-09-19T03:59:30;7.17;;;2.27;;
5491;SDS011;2768;53.540;10.224;2023-09-19T04:05:24;4.50;;;1.93;;
5491;SDS011;2768;53.540;10.224;2023-09-19T04:11:19;4.23;;;1.90;;
5491;SDS011;2768;53.540;10.224;2023-09-19T04:17:13;9.23;;;1.80;;
5491;SDS011;2768;53.540;10.224;2023-09-19T04:23:06;4.77;;;1.60;;
5491;SDS011;2768;53.540;10.224;2023-09-19T04:29:03;7.53;;;1.90;;
5491;SDS011;2768;53.540;10.224;2023-09-19T04:35:16;3.73;;;1.90;;
5491;SDS011;2768;53.540;10.224;2023-09-19T04:41:10;5.20;;;1.90;;
5491;SDS011;2768;53.540;10.224;2023-09-19T04:47:05;5.90;;;1.90;;
5491;SDS011;2768;53.540;10.224;2023-09-19T04:52:59;5.60;;;2.00;;
5491;SDS011;2768;53.540;10.224;2023-09-19T04:58:52;8.23;;;2.17;;
5491;SDS011;2768;53.540;10.224;2023-09-19T05:04:47;5.60;;;2.50;;
5491;SDS011;2768;53.540;10.224;2023-09-19T05:10:40;3.23;;;1.73;;
5491;SDS011;2768;53.540;10.224;2023-09-19T05:16:34;5.03;;;1.70;;
5491;SDS011;2768;53.540;10.224;2023-09-19T05:22:29;5.00;;;1.90;;
5491;SDS011;2768;53.540;10.224;2023-09-19T05:28:23;6.33;;;1.60;;
5491;SDS011;2768;53.540;10.224;2023-09-19T05:34:17;11.70;;;2.50;;
5491;SDS011;2768;53.540;10.224;2023-09-19T05:40:12;6.80;;;1.97;;
5491;SDS011;2768;53.540;10.224;2023-09-19T05:46:06;5.30;;;2.40;;
5491;SDS011;2768;53.540;10.224;2023-09-19T05:52:00;6.07;;;2.20;;
5491;SDS011;2768;53.540;10.224;2023-09-19T05:57:55;4.67;;;1.70;;
5491;SDS011;2768;53.540;10.224;2023-09-19T06:03:48;4.00;;;1.80;;
5491;SDS011;2768;53.540;10.224;2023-09-19T06:09:43;5.13;;;1.67;;
5491;SDS011;2768;53.540;10.224;2023-09-19T06:15:37;6.23;;;2.27;;
5491;SDS011;2768;53.540;10.224;2023-09-19T06:21:31;4.10;;;1.90;;
5491;SDS011;2768;53.540;10.224;2023-09-19T06:27:26;5.90;;;2.10;;
5491;SDS011;2768;53.540;10.224;2023-09-19T06:33:22;5.33;;;2.00;;
5491;SDS011;2768;53.540;10.224;2023-09-19T06:39:16;5.27;;;2.50;;
5491;SDS011;2768;53.540;10.224;2023-09-19T06:45:09;5.47;;;2.10;;
5491;SDS011;2768;53.540;10.224;2023-09-19T06:51:06;4.50;;;2.13;;
5491;SDS011;2768;53.540;10.224;2023-09-19T06:56:59;11.03;;;2.40;;
5491;SDS011;2768;53.540;10.224;2023-09-19T07:02:56;9.50;;;2.60;;
5491;SDS011;2768;53.540;10.224;2023-09-19T07:08:54;8.53;;;2.40;;
5491;SDS011;2768;53.540;10.224;2023-09-19T07:14:48;8.90;;;2.20;;
5491;SDS011;2768;53.540;10.224;2023-09-19T07:20:42;7.23;;;2.33;;
5491;SDS011;2768;53.540;10.224;2023-09-19T07:26:42;5.83;;;2.40;;
5491;SDS011;2768;53.540;10.224;2023-09-19T07:32:35;7.60;;;2.30;;
5491;SDS011;2768;53.540;10.224;2023-09-19T07:38:30;8.80;;;2.20;;
5491;SDS011;2768;53.540;10.224;2023-09-19T07:44:26;8.47;;;2.40;;
5491;SDS011;2768;53.540;10.224;2023-09-19T07:50:20;5.37;;;2.20;;
5491;SDS011;2768;53.540;10.224;2023-09-19T07:56:14;9.63;;;2.50;;
5491;SDS011;2768;53.540;10.224;2023-09-19T08:02:10;11.90;;;2.77;;
5491;SDS011;2768;53.540;10.224;2023-09-19T08:08:07;9.03;;;2.47;;
5491;SDS011;2768;53.540;10.224;2023-09-19T08:14:01;7.33;;;2.30;;
5491;SDS011;2768;53.540;10.224;2023-09-19T08:19:56;4.33;;;2.00;;
5491;SDS011;2768;53.540;10.224;2023-09-19T08:25:49;8.30;;;2.40;;
5491;SDS011;2768;53.540;10.224;2023-09-19T08:31:43;10.73;;;2.80;;
5491;SDS011;2768;53.540;10.224;2023-09-19T08:37:41;6.90;;;2.27;;
5491;SDS011;2768;53.540;10.224;2023-09-19T08:43:37;4.70;;;2.30;;
5491;SDS011;2768;53.540;10.224;2023-09-19T08:49:33;5.27;;;2.37;;
5491;SDS011;2768;53.540;10.224;2023-09-19T08:55:37;6.00;;;2.80;;
5491;SDS011;2768;53.540;10.224;2023-09-19T09:01:34;10.13;;;2.57;;
5491;SDS011;2768;53.540;10.224;2023-09-19T09:07:29;6.90;;;2.40;;
5491;SDS011;2768;53.540;10.224;2023-09-19T09:13:24;7.73;;;2.40;;
5491;SDS011;2768;53.540;10.224;2023-09-19T09:19:19;7.33;;;2.63;;
5491;SDS011;2768;53.540;10.224;2023-09-19T09:25:16;5.87;;;2.40;;
5491;SDS011;2768;53.540;10.224;2023-09-19T09:31:13;7.67;;;2.57;;
5491;SDS011;2768;53.540;10.224;2023-09-19T09:37:17;6.40;;;2.70;;
5491;SDS011;2768;53.540;10.224;2023-09-19T09:43:24;6.07;;;1.93;;
5491;SDS011;2768;53.540;10.224;2023-09-19T09:49:23;6.30;;;2.23;;
5491;SDS011;2768;53.540;10.224;2023-09-19T09:55:19;7.53;;;2.57;;
5491;SDS011;2768;53.540;10.224;2023-09-19T10:01:12;4.70;;;2.23;;
5491;SDS011;2768;53.540;10.224;2023-09-19T10:07:08;8.80;;;2.50;;
5491;SDS011;2768;53.540;10.224;2023-09-19T10:13:03;7.67;;;1.80;;
5491;SDS011;2768;53.540;10.224;2023-09-19T10:19:00;5.40;;;2.13;;
5491;SDS011;2768;53.540;10.224;2023-09-19T10:25:01;6.50;;;2.20;;
5491;SDS011;2768;53.540;10.224;2023-09-19T10:30:58;6.43;;;2.27;;
5491;SDS011;2768;53.540;10.224;2023-09-19T10:36:53;4.23;;;1.73;;
5491;SDS011;2768;53.540;10.224;2023-09-19T10:42:49;4.33;;;1.70;;
5491;SDS011;2768;53.540;10.224;2023-09-19T10:48:43;6.60;;;2.00;;
5491;SDS011;2768;53.540;10.224;2023-09-19T10:54:41;5.60;;;1.80;;
5491;SDS011;2768;53.540;10.224;2023-09-19T11:06:59;4.70;;;1.83;;
5491;SDS011;2768;53.540;10.224;2023-09-19T11:13:09;5.20;;;1.90;;
5491;SDS011;2768;53.540;10.224;2023-09-19T11:19:18;4.30;;;1.53;;
5491;SDS011;2768;53.540;10.224;2023-09-19T11:31:43;7.13;;;2.27;;
5491;SDS011;2768;53.540;10.224;2023-09-19T11:50:26;7.33;;;2.40;;
5491;SDS011;2768;53.540;10.224;2023-09-19T11:56:22;6.30;;;1.93;;
5491;SDS011;2768;53.540;10.224;2023-09-19T12:02:19;4.93;;;2.10;;
5491;SDS011;2768;53.540;10.224;2023-09-19T12:08:28;5.80;;;1.67;;
5491;SDS011;2768;53.540;10.224;2023-09-19T12:14:23;5.53;;;1.70;;
5491;SDS011;2768;53.540;10.224;2023-09-19T12:20:18;6.67;;;1.93;;
5491;SDS011;2768;53.540;10.224;2023-09-19T12:26:11;5.60;;;2.20;;
5491;SDS011;2768;53.540;10.224;2023-09-19T12:32:07;6.20;;;2.40;;
5491;SDS011;2768;53.540;10.224;2023-09-19T12:38:01;5.67;;;2.27;;
5491;SDS011;2768;53.540;10.224;2023-09-19T12:43:56;6.07;;;2.13;;
5491;SDS011;2768;53.540;10.224;2023-09-19T12:56:21;7.13;;;1.90;;
5491;SDS011;2768;53.540;10.224;2023-09-19T13:02:14;8.97;;;2.87;;
5491;SDS011;2768;53.540;10.224;2023-09-19T13:08:18;8.03;;;2.80;;
5491;SDS011;2768;53.540;10.224;2023-09-19T13:14:25;4.20;;;1.97;;
5491;SDS011;2768;53.540;10.224;2023-09-19T13:20:21;4.87;;;1.90;;
5491;SDS011;2768;53.540;10.224;2023-09-19T13:26:20;11.17;;;2.37;;
5491;SDS011;2768;53.540;10.224;2023-09-19T13:32:14;6.10;;;2.40;;
5491;SDS011;2768;53.540;10.224;2023-09-19T13:38:07;5.37;;;2.13;;
5491;SDS011;2768;53.540;10.224;2023-09-19T13:44:05;4.63;;;2.13;;
5491;SDS011;2768;53.540;10.224;2023-09-19T13:50:01;12.13;;;2.60;;
5491;SDS011;2768;53.540;10.224;2023-09-19T13:55:56;5.30;;;2.30;;
5491;SDS011;2768;53.540;10.224;2023-09-19T14:01:50;8.93;;;2.33;;
5491;SDS011;2768;53.540;10.224;2023-09-19T14:07:45;6.30;;;2.50;;
5491;SDS011;2768;53.540;10.224;2023-09-19T14:13:39;4.30;;;2.23;;
5491;SDS011;2768;53.540;10.224;2023-09-19T14:19:34;7.77;;;2.33;;
5491;SDS011;2768;53.540;10.224;2023-09-19T14:25:28;9.27;;;2.23;;
5491;SDS011;2768;53.540;10.224;2023-09-19T14:31:23;6.43;;;2.20;;
5491;SDS011;2768;53.540;10.224;2023-09-19T14:37:19;3.90;;;1.70;;
5491;SDS011;2768;53.540;10.224;2023-09-19T14:43:12;3.73;;;1.97;;
5491;SDS011;2768;53.540;10.224;2023-09-19T14:49:06;6.17;;;2.37;;
5491;SDS011;2768;53.540;10.224;2023-09-19T14:55:03;7.40;;;2.43;;
5491;SDS011;2768;53.540;10.224;2023-09-19T15:01:03;6.30;;;2.00;;
5491;SDS011;2768;53.540;10.224;2023-09-19T15:06:57;4.67;;;2.40;;
5491;SDS011;2768;53.540;10.224;2023-09-19T15:12:52;8.53;;;2.50;;
5491;SDS011;2768;53.540;10.224;2023-09-19T15:18:45;9.57;;;2.60;;
5491;SDS011;2768;53.540;10.224;2023-09-19T15:24:40;7.40;;;2.37;;
5491;SDS011;2768;53.540;10.224;2023-09-19T15:30:37;6.27;;;2.53;;
5491;SDS011;2768;53.540;10.224;2023-09-19T15:36:30;6.90;;;2.60;;
5491;SDS011;2768;53.540;10.224;2023-09-19T15:42:24;6.87;;;2.20;;
5491;SDS011;2768;53.540;10.224;2023-09-19T15:48:19;9.37;;;2.57;;
5491;SDS011;2768;53.540;10.224;2023-09-19T15:54:13;4.60;;;2.20;;
5491;SDS011;2768;53.540;10.224;2023-09-19T16:00:08;6.00;;;2.30;;
5491;SDS011;2768;53.540;10.224;2023-09-19T16:06:08;4.27;;;2.23;;
5491;SDS011;2768;53.540;10.224;2023-09-19T16:12:03;6.57;;;2.47;;
5491;SDS011;2768;53.540;10.224;2023-09-19T16:17:57;5.17;;;2.30;;
5491;SDS011;2768;53.540;10.224;2023-09-19T16:23:53;9.33;;;2.57;;
5491;SDS011;2768;53.540;10.224;2023-09-19T16:29:48;8.07;;;1.93;;
5491;SDS011;2768;53.540;10.224;2023-09-19T16:35:41;6.07;;;2.33;;
5491;SDS011;2768;53.540;10.224;2023-09-19T16:41:36;2.97;;;1.80;;
5491;SDS011;2768;53.540;10.224;2023-09-19T16:47:30;8.13;;;2.40;;
5491;SDS011;2768;53.540;10.224;2023-09-19T16:53:23;5.20;;;2.43;;
5491;SDS011;2768;53.540;10.224;2023-09-19T16:59:18;5.03;;;2.03;;
5491;SDS011;2768;53.540;10.224;2023-09-19T17:05:16;5.60;;;2.23;;
5491;SDS011;2768;53.540;10.224;2023-09-19T17:11:11;4.00;;;2.03;;
5491;SDS011;2768;53.540;10.224;2023-09-19T17:17:07;6.53;;;2.17;;
5491;SDS011;2768;53.540;10.224;2023-09-19T17:23:03;9.37;;;2.00;;
5491;SDS011;2768;53.540;10.224;2023-09-19T17:28:56;6.03;;;1.50;;
5491;SDS011;2768;53.540;10.224;2023-09-19T17:34:51;8.87;;;2.30;;
5491;SDS011;2768;53.540;10.224;2023-09-19T17:40:44;4.23;;;1.63;;
5491;SDS011;2768;53.540;10.224;2023-09-19T17:46:38;7.10;;;2.03;;
5491;SDS011;2768;53.540;10.224;2023-09-19T17:52:32;5.00;;;2.30;;
5491;SDS011;2768;53.540;10.224;2023-09-19T17:58:26;5.67;;;1.90;;
5491;SDS011;2768;53.540;10.224;2023-09-19T18:04:20;4.30;;;1.73;;
5491;SDS011;2768;53.540;10.224;2023-09-19T18:10:14;5.60;;;2.00;;
5491;SDS011;2768;53.540;10.224;2023-09-19T18:16:08;5.03;;;1.80;;
5491;SDS011;2768;53.540;10.224;2023-09-19T18:22:02;4.90;;;1.83;;
5491;SDS011;2768;53.540;10.224;2023-09-19T18:27:58;5.83;;;2.10;;
5491;SDS011;2768;53.540;10.224;2023-09-19T18:33:51;4.17;;;1.40;;
5491;SDS011;2768;53.540;10.224;2023-09-19T18:39:45;4.70;;;1.70;;
5491;SDS011;2768;53.540;10.224;2023-09-19T18:45:40;3.20;;;1.50;;
5491;SDS011;2768;53.540;10.224;2023-09-19T18:51:35;2.20;;;1.30;;
5491;SDS011;2768;53.540;10.224;2023-09-19T18:57:28;4.73;;;1.97;;
5491;SDS011;2768;53.540;10.224;2023-09-19T19:03:23;3.00;;;2.03;;
5491;SDS011;2768;53.540;10.224;2023-09-19T19:09:17;3.30;;;1.40;;
5491;SDS011;2768;53.540;10.224;2023-09-19T19:15:11;2.53;;;1.40;;
5491;SDS011;2768;53.540;10.224;2023-09-19T19:21:06;3.43;;;1.80;;
5491;SDS011;2768;53.540;10.224;2023-09-19T19:27:01;5.97;;;1.60;;
5491;SDS011;2768;53.540;10.224;2023-09-19T19:32:55;2.40;;;1.33;;
5491;SDS011;2768;53.540;10.224;2023-09-19T19:38:50;7.73;;;1.37;;
5491;SDS011;2768;53.540;10.224;2023-09-19T19:44:44;3.57;;;1.40;;
5491;SDS011;2768;53.540;10.224;2023-09-19T19:50:37;2.70;;;1.23;;
5491;SDS011;2768;53.540;10.224;2023-09-19T19:56:34;4.10;;;1.63;;
5491;SDS011;2768;53.540;10.224;2023-09-19T20:02:30;1.77;;;1.20;;
5491;SDS011;2768;53.540;10.224;2023-09-19T20:08:25;3.70;;;1.40;;
5491;SDS011;2768;53.540;10.224;2023-09-19T20:14:21;2.80;;;1.37;;
5491;SDS011;2768;53.540;10.224;2023-09-19T20:20:15;2.70;;;1.70;;
5491;SDS011;2768;53.540;10.224;2023-09-19T20:26:09;2.60;;;1.50;;
5491;SDS011;2768;53.540;10.224;2023-09-19T20:32:05;2.90;;;1.23;;
5491;SDS011;2768;53.540;10.224;2023-09-19T20:38:00;3.70;;;1.37;;
5491;SDS011;2768;53.540;10.224;2023-09-19T20:43:54;4.10;;;1.60;;
5491;SDS011;2768;53.540;10.224;2023-09-19T20:49:49;7.00;;;1.77;;
5491;SDS011;2768;53.540;10.224;2023-09-19T20:55:43;4.70;;;1.50;;
5491;SDS011;2768;53.540;10.224;2023-09-19T21:01:36;4.40;;;1.30;;
5491;SDS011;2768;53.540;10.224;2023-09-19T21:07:31;3.13;;;1.53;;
5491;SDS011;2768;53.540;10.224;2023-09-19T21:13:24;4.03;;;1.23;;
5491;SDS011;2768;53.540;10.224;2023-09-19T21:19:19;2.50;;;1.30;;
5491;SDS011;2768;53.540;10.224;2023-09-19T21:25:14;2.70;;;1.23;;
5491;SDS011;2768;53.540;10.224;2023-09-19T21:31:08;3.50;;;1.53;;
5491;SDS011;2768;53.540;10.224;2023-09-19T21:37:01;5.40;;;1.50;;
5491;SDS011;2768;53.540;10.224;2023-09-19T21:42:56;3.70;;;1.40;;
5491;SDS011;2768;53.540;10.224;2023-09-19T21:48:51;4.60;;;1.77;;
5491;SDS011;2768;53.540;10.224;2023-09-19T21:54:46;5.43;;;1.10;;
5491;SDS011;2768;53.540;10.224;2023-09-19T22:00:40;3.37;;;1.50;;
5491;SDS011;2768;53.540;10.224;2023-09-19T22:06:37;5.20;;;1.10;;
5491;SDS011;2768;53.540;10.224;2023-09-19T22:12:31;2.83;;;1.33;;
5491;SDS011;2768;53.540;10.224;2023-09-19T22:18:26;2.13;;;1.70;;
5491;SDS011;2768;53.540;10.224;2023-09-19T22:24:19;3.17;;;1.30;;
5491;SDS011;2768;53.540;10.224;2023-09-19T22:30:13;2.90;;;1.43;;
5491;SDS011;2768;53.540;10.224;2023-09-19T22:36:12;4.37;;;1.83;;
5491;SDS011;2768;53.540;10.224;2023-09-19T22:42:06;3.87;;;1.40;;
5491;SDS011;2768;53.540;10.224;2023-09-19T22:48:03;3.00;;;1.27;;
5491;SDS011;2768;53.540;10.224;2023-09-19T22:54:01;3.17;;;1.57;;
5491;SDS011;2768;53.540;10.224;2023-09-19T23:00:00;4.73;;;1.20;;
5491;SDS011;2768;53.540;10.224;2023-09-19T23:05:55;3.17;;;1.60;;
5491;SDS011;2768;53.540;10.224;2023-09-19T23:11:54;2.20;;;1.30;;
5491;SDS011;2768;53.540;10.224;2023-09-19T23:17:52;3.20;;;1.33;;
5491;SDS011;2768;53.540;10.224;2023-09-19T23:23:46;3.10;;;1.50;;
5491;SDS011;2768;53.540;10.224;2023-09-19T23:29:41;4.50;;;1.57;;
5491;SDS011;2768;53.540;10.224;2023-09-19T23:35:34;3.33;;;1.43;;
5491;SDS011;2768;53.540;10.224;2023-09-19T23:41:28;2.60;;;1.50;;
5491;SDS011;2768;53.540;10.224;2023-09-19T23:47:23;3.43;;;1.50;;
5491;SDS011;2768;53.540;10.224;2023-09-19T23:53:18;3.87;;;1.53;;
5491;SDS011;2768;53.540;10.224;2023-09-19T23:59:12;3.57;;;1.60;;
